Data for 03/11/2017

Time Sea-Level Adjusted Pressure Absolute Pressure Temperature Relative Humidity Dew Point   
(mb) (inHg) (mb) (inHg) (C) (F) (%) (C) (F)
00:05 1021 30.15 850 25.1 3 37.4 57 -4.8 23.3
00:10 1021 30.15 850 25.1 2.5 36.5 60 -4.5 23.9
00:15 1021 30.15 851 25.13 1.8 35.3 61 -5 23
00:20 1021 30.15 851 25.13 2.1 35.8 59 -5.1 22.8
00:25 1021 30.15 851 25.13 2.5 36.5 56 -5.4 22.3
00:30 1022 30.18 851 25.13 3 37.4 55 -5.3 22.5
00:35 1022 30.18 851 25.13 3 37.4 56 -5 23
00:40 1022 30.18 851 25.13 2.9 37.2 56 -5 23.1
00:45 1022 30.18 851 25.13 2.6 36.8 58 -4.8 23.3
00:50 1022 30.18 851 25.13 2.3 36.2 60 -4.6 23.6
00:55 1022 30.18 851 25.13 2 35.6 62 -4.6 23.7
01:00 1022 30.18 851 25.13 1.8 35.3 62 -4.7 23.6
01:05 1022 30.18 851 25.13 1.7 35.1 63 -4.6 23.8
01:10 1022 30.18 851 25.13 1.6 34.8 64 -4.6 23.7
01:15 1022 30.18 851 25.13 1.7 35 62 -4.9 23.2
01:20 1022 30.18 851 25.13 1.9 35.4 62 -4.7 23.5
01:25 1022 30.18 851 25.13 1.8 35.2 62 -4.7 23.6
01:30 1022 30.18 851 25.13 1.6 34.8 63 -4.7 23.6
01:35 1022 30.18 851 25.13 1.4 34.6 63 -4.9 23.2
01:40 1022 30.18 851 25.13 1.5 34.8 62 -4.9 23.1
01:45 1022 30.18 851 25.13 1.6 35 62 -4.9 23.1
01:50 1022 30.18 851 25.13 1.5 34.7 63 -4.8 23.4
01:55 1022 30.18 851 25.13 1.4 34.5 63 -4.9 23.2
02:00 1022 30.18 852 25.16 1.4 34.6 63 -4.8 23.4
02:05 1022 30.18 852 25.16 1.5 34.7 63 -4.8 23.4
02:10 1023 30.21 852 25.16 1.7 35.1 63 -4.5 23.9
02:15 1023 30.21 852 25.16 1.8 35.2 63 -4.6 23.8
02:20 1023 30.21 852 25.16 1.8 35.3 61 -4.8 23.3
02:25 1023 30.21 852 25.16 1.9 35.5 61 -4.7 23.5
02:30 1023 30.21 852 25.16 1.9 35.4 61 -4.9 23.3
02:35 1023 30.21 852 25.16 1.9 35.5 61 -4.8 23.4
02:40 1023 30.21 852 25.16 1.9 35.5 61 -4.8 23.3
02:45 1023 30.21 852 25.16 2 35.5 60 -4.9 23.1
02:50 1023 30.21 852 25.16 2.1 35.8 60 -5 23.1
02:55 1023 30.21 852 25.16 2.1 35.7 60 -4.9 23.3
03:00 1023 30.21 852 25.16 1.9 35.5 61 -4.9 23.2
03:05 1023 30.21 852 25.16 1.9 35.3 61 -4.9 23.2
03:10 1023 30.21 852 25.16 1.7 35.1 64 -4.4 24
03:15 1023 30.21 852 25.16 1.5 34.8 63 -4.8 23.4
03:20 1023 30.21 852 25.16 1.6 34.8 62 -4.9 23.1
03:25 1023 30.21 852 25.16 1.5 34.6 62 -5 23
03:30 1023 30.21 852 25.16 1.3 34.3 63 -5.1 22.9
03:35 1023 30.21 852 25.16 1.3 34.3 62 -5.3 22.5
03:40 1023 30.21 852 25.16 1.5 34.7 61 -5.2 22.6
03:45 1023 30.21 852 25.16 1.7 35 62 -5 23.1
03:50 1023 30.21 852 25.16 1.9 35.4 59 -5.2 22.7
03:55 1023 30.21 852 25.16 1.8 35.2 60 -5.1 22.8
04:00 1023 30.21 852 25.16 1.8 35.2 59 -5.3 22.4
04:05 1023 30.21 852 25.16 1.8 35.2 59 -5.4 22.3
04:10 1023 30.21 852 25.16 1.7 35 59 -5.5 22.1
04:15 1023 30.21 852 25.16 1.7 35 60 -5.4 22.3
04:20 1023 30.21 852 25.16 1.6 34.9 62 -5 23
04:25 1023 30.21 852 25.16 1.6 34.8 61 -5.2 22.7
04:30 1023 30.21 852 25.16 1.7 35 60 -5.4 22.4
04:35 1023 30.21 852 25.16 1.5 34.8 58 -5.7 21.7
04:40 1023 30.21 852 25.16 2 35.6 56 -5.9 21.4
04:45 1023 30.21 852 25.16 2.3 36.1 58 -5.3 22.5
04:50 1023 30.21 852 25.16 2 35.6 59 -5.2 22.7
04:55 1023 30.21 852 25.16 1.9 35.4 58 -5.5 22.1
05:00 1023 30.21 852 25.16 1.7 35.1 61 -5 23
05:05 1023 30.21 852 25.16 1.9 35.4 57 -5.8 21.6
05:10 1023 30.21 852 25.16 2.4 36.2 56 -5.5 22
05:15 1023 30.21 852 25.16 2.6 36.6 56 -5.3 22.4
05:20 1023 30.21 852 25.16 2.2 35.9 58 -5.3 22.5
05:25 1023 30.21 852 25.16 1.7 35 60 -5.3 22.5
05:30 1023 30.21 852 25.16 1.4 34.4 61 -5.4 22.2
05:35 1023 30.21 852 25.16 1.3 34.3 61 -5.5 22.1
05:40 1023 30.21 852 25.16 1.5 34.8 59 -5.7 21.8
05:45 1023 30.21 853 25.19 1.7 35.1 61 -5.1 22.9
05:50 1023 30.21 853 25.19 1.5 34.8 61 -5.1 22.8
05:55 1023 30.21 853 25.19 1.3 34.3 62 -5.3 22.5
06:00 1023 30.21 853 25.19 1.1 33.9 62 -5.4 22.3
06:05 1023 30.21 853 25.19 1 33.8 62 -5.5 22
06:10 1023 30.21 853 25.19 1.1 33.9 61 -5.5 22
06:15 1023 30.21 853 25.19 1 33.8 61 -5.6 21.9
06:20 1024 30.24 853 25.19 0.6 33.2 65 -5.3 22.5
06:25 1024 30.24 853 25.19 0.4 32.7 63 -5.9 21.5
06:30 1024 30.24 853 25.19 0.7 33.3 60 -6.1 21
06:35 1024 30.24 853 25.19 1 33.8 60 -5.9 21.4
06:40 1024 30.24 853 25.19 0.9 33.6 61 -5.8 21.5
06:45 1024 30.24 853 25.19 0.7 33.2 62 -5.9 21.5
06:50 1024 30.24 853 25.19 0.5 33 61 -6.2 20.9
06:55 1024 30.24 853 25.19 1.1 33.9 58 -6.2 20.8
07:00 1024 30.24 853 25.19 1.2 34.2 58 -6.2 20.8
07:05 1024 30.24 853 25.19 1.4 34.5 56 -6.4 20.5
07:10 1024 30.24 853 25.19 1.6 34.9 56 -6.3 20.7
07:15 1024 30.24 853 25.19 1.6 34.8 56 -6.3 20.7
07:20 1024 30.24 853 25.19 1.7 35 55 -6.4 20.4
07:25 1024 30.24 853 25.19 1.8 35.2 57 -6 21.3
07:30 1024 30.24 853 25.19 1.2 34.2 59 -6 21.2
07:35 1024 30.24 853 25.19 1 33.7 59 -6.2 20.8
07:40 1024 30.24 853 25.19 1 33.8 58 -6.3 20.7
07:45 1024 30.24 853 25.19 1 33.8 59 -6.1 21
07:50 1024 30.24 853 25.19 0.7 33.3 61 -6 21.2
07:55 1024 30.24 853 25.19 0.4 32.8 62 -6.1 21.1
08:00 1024 30.24 853 25.19 0.3 32.6 62 -6 21.1
08:05 1024 30.24 853 25.19 0.2 32.4 63 -6.1 21
08:10 1023 30.21 853 25.19 0.2 32.3 62 -6.3 20.7
08:15 1023 30.21 853 25.19 0.2 32.3 62 -6.2 20.9
08:20 1023 30.21 852 25.16 0.2 32.4 62 -6.2 20.9
08:25 1023 30.21 852 25.16 0.2 32.4 62 -6.2 20.9
08:30 1023 30.21 852 25.16 0.2 32.4 62 -6.2 20.9
08:35 1023 30.21 853 25.19 0.2 32.4 63 -6.1 21.1
08:40 1023 30.21 852 25.16 0.2 32.4 63 -6.1 21.1
08:45 1023 30.21 852 25.16 0.3 32.5 63 -6 21.2
08:50 1023 30.21 852 25.16 0.4 32.7 62 -6.1 20.9
08:55 1023 30.21 852 25.16 0.5 33 61 -6.1 21
09:00 1023 30.21 852 25.16 0.8 33.4 61 -6 21.2
09:05 1023 30.21 852 25.16 0.9 33.6 61 -5.9 21.4
09:10 1023 30.21 853 25.19 1.1 33.9 59 -6 21.1
09:15 1023 30.21 853 25.19 1.4 34.5 58 -6 21.2
09:20 1024 30.24 853 25.19 1.7 35.1 57 -6 21.2
09:25 1024 30.24 853 25.19 1.9 35.4 56 -5.9 21.4
09:30 1024 30.24 853 25.19 2.1 35.7 56 -5.9 21.4
09:35 1024 30.24 853 25.19 2.4 36.3 55 -5.7 21.7
09:40 1024 30.24 853 25.19 2.8 37.1 52 -6.1 21.1
09:45 1024 30.24 853 25.19 3.2 37.8 52 -5.8 21.6
09:50 1024 30.24 853 25.19 3.4 38.1 53 -5.4 22.3
09:55 1024 30.24 853 25.19 3.2 37.7 53 -5.6 22
10:00 1024 30.24 853 25.19 3.1 37.6 53 -5.6 21.8
10:05 1024 30.24 853 25.19 3.4 38.1 53 -5.2 22.6
10:10 1024 30.24 853 25.19 3.7 38.6 52 -5.4 22.3
10:15 1024 30.24 853 25.19 4.1 39.5 48 -5.9 21.5
10:20 1024 30.24 853 25.19 4.4 39.9 47 -6.1 21.1
10:25 1024 30.24 853 25.19 4.3 39.8 48 -5.8 21.5
10:30 1024 30.24 853 25.19 4.2 39.6 47 -6.2 20.9
10:35 1024 30.24 853 25.19 4.5 40.1 47 -5.9 21.4
10:40 1024 30.24 853 25.19 4.9 40.8 44 -6.2 20.8
10:45 1024 30.24 853 25.19 5.3 41.5 45 -5.8 21.5
10:50 1024 30.24 853 25.19 5.7 42.2 44 -5.8 21.6
10:55 1024 30.24 853 25.19 5.8 42.5 43 -5.7 21.7
11:00 1024 30.24 853 25.19 5.9 42.7 42 -5.9 21.4
11:05 1024 30.24 853 25.19 6 42.9 42 -5.8 21.6
11:10 1024 30.24 853 25.19 6.5 43.6 41 -5.8 21.6
11:15 1024 30.24 853 25.19 6.3 43.4 42 -5.5 22.1
11:20 1024 30.24 853 25.19 6.2 43.1 44 -5.3 22.5
11:25 1024 30.24 853 25.19 6.2 43.2 44 -5.3 22.5
11:30 1024 30.24 853 25.19 6.4 43.6 42 -5.5 22.1
11:35 1024 30.24 853 25.19 6.8 44.2 41 -5.5 22.1
11:40 1023 30.21 853 25.19 6.5 43.7 44 -5 23
11:45 1023 30.21 852 25.16 6.7 44 42 -5.4 22.3
11:50 1023 30.21 852 25.16 6.9 44.4 42 -5.2 22.6
11:55 1023 30.21 852 25.16 6.8 44.2 41 -5.7 21.7
12:00 1023 30.21 852 25.16 6.8 44.2 40 -5.8 21.5
12:05 1023 30.21 852 25.16 6.8 44.3 39 -6 21.1
12:10 1023 30.21 852 25.16 6.9 44.4 39 -6.2 20.8
12:15 1023 30.21 852 25.16 7.3 45.1 36 -6.7 20
12:20 1022 30.18 852 25.16 7.9 46.2 35 -6.7 20
12:25 1022 30.18 852 25.16 9 48.1 32 -7 19.4
12:30 1022 30.18 852 25.16 8.8 47.9 30 -7.6 18.3
12:35 1022 30.18 851 25.13 9.2 48.5 28 -8.2 17.2
12:40 1022 30.18 851 25.13 9 48.2 29 -8.1 17.4
12:45 1022 30.18 851 25.13 9.4 48.8 31 -7.1 19.2
12:50 1022 30.18 851 25.13 9.3 48.7 29 -7.8 18
12:55 1022 30.18 851 25.13 10.3 50.6 27 -7.8 17.9
13:00 1022 30.18 851 25.13 10.9 51.5 26 -7.8 18
13:05 1022 30.18 851 25.13 11.2 52.2 26 -7.6 18.3
13:10 1022 30.18 851 25.13 11.7 53 25 -7.7 18.1
13:15 1022 30.18 851 25.13 11.4 52.5 25 -7.8 18
13:20 1022 30.18 851 25.13 11.7 53.1 26 -7.1 19.2
13:25 1022 30.18 851 25.13 11.7 53 26 -7.3 18.9
13:30 1022 30.18 851 25.13 11.7 53.1 25 -7.5 18.5
13:35 1022 30.18 851 25.13 10.8 51.4 27 -7.5 18.6
13:40 1021 30.15 851 25.13 10.4 50.7 27 -8 17.5
13:45 1021 30.15 851 25.13 10.8 51.4 26 -7.9 17.8
13:50 1021 30.15 850 25.1 10.9 51.6 26 -8 17.6
13:55 1021 30.15 850 25.1 10.9 51.6 27 -7.2 19
14:00 1021 30.15 850 25.1 10.9 51.5 28 -6.9 19.5
14:05 1021 30.15 850 25.1 10.7 51.3 29 -6.5 20.2
14:10 1021 30.15 850 25.1 10.3 50.5 29 -6.9 19.5
14:15 1021 30.15 850 25.1 9.9 49.7 30 -7.1 19.3
14:20 1021 30.15 850 25.1 9.8 49.7 29 -7.3 18.9
14:25 1021 30.15 850 25.1 9.7 49.5 28 -7.7 18.1
14:30 1020 30.12 850 25.1 10.8 51.5 28 -7 19.5
14:35 1020 30.12 850 25.1 10.7 51.2 26 -7.9 17.9
14:40 1020 30.12 849 25.07 11.9 53.4 25 -7.6 18.3
14:45 1020 30.12 849 25.07 11.7 53.1 25 -7.5 18.5
14:50 1020 30.12 849 25.07 12.8 55 23 -7.5 18.4
14:55 1020 30.12 849 25.07 12.8 55.1 24 -7 19.3
15:00 1020 30.12 849 25.07 12.6 54.7 26 -6.6 20.1
15:05 1020 30.12 849 25.07 12.1 53.8 28 -5.7 21.8
15:10 1020 30.12 849 25.07 12.1 53.8 28 -6 21.2
15:15 1020 30.12 849 25.07 11.9 53.5 28 -6.2 20.9
15:20 1020 30.12 849 25.07 11.5 52.6 28 -6.3 20.6
15:25 1020 30.12 849 25.07 11.1 51.9 28 -6.8 19.8
15:30 1020 30.12 849 25.07 11.1 52 28 -6.7 20
15:35 1020 30.12 849 25.07 10.7 51.2 28 -7 19.5
15:40 1020 30.12 849 25.07 10.4 50.8 28 -7.4 18.8
15:45 1019 30.09 849 25.07 10.4 50.6 28 -7.2 19.1
15:50 1019 30.09 848 25.04 10.2 50.4 28 -7.3 18.9
15:55 1019 30.09 848 25.04 10.1 50.1 28 -7.5 18.5
16:00 1019 30.09 848 25.04 10 50.1 28 -7.8 18
16:05 1019 30.09 848 25.04 10.4 50.7 27 -7.9 17.7
16:10 1019 30.09 848 25.04 10.6 51 27 -7.7 18.1
16:15 1019 30.09 848 25.04 10.9 51.5 26 -7.8 18
16:20 1019 30.09 848 25.04 10.6 51.1 27 -7.8 17.9
16:25 1019 30.09 848 25.04 10.6 51.1 27 -7.7 18.1
16:30 1019 30.09 848 25.04 10.6 51 27 -7.7 18.1
16:35 1019 30.09 848 25.04 10.7 51.2 27 -7.5 18.5
16:40 1019 30.09 848 25.04 10.7 51.3 28 -7.2 19
16:45 1019 30.09 848 25.04 10.7 51.2 28 -7.2 19
16:50 1019 30.09 848 25.04 10.5 51 29 -6.6 20.1
16:55 1019 30.09 848 25.04 10.3 50.5 30 -6.7 19.9
17:00 1019 30.09 848 25.04 10.1 50.1 29 -7.3 18.8
17:05 1018 30.06 848 25.04 10.2 50.3 29 -7.2 19.1
17:10 1018 30.06 848 25.04 10.1 50.2 29 -7 19.4
17:15 1018 30.06 848 25.04 9.9 49.9 29 -7.1 19.3
17:20 1018 30.06 848 25.04 10 49.9 29 -7.2 19
17:25 1018 30.06 847 25.01 10 50.1 29 -7.4 18.7
17:30 1018 30.06 847 25.01 10.1 50.3 29 -7.3 18.9
17:35 1018 30.06 847 25.01 10.3 50.6 29 -7.1 19.2
17:40 1018 30.06 847 25.01 10 50.1 30 -6.9 19.7
17:45 1018 30.06 847 25.01 9.7 49.5 30 -6.9 19.6
17:50 1018 30.06 847 25.01 9.7 49.4 30 -6.9 19.5
17:55 1018 30.06 847 25.01 9.7 49.4 31 -6.5 20.3
18:00 1018 30.06 847 25.01 9.5 49.2 31 -6.7 20
18:05 1018 30.06 847 25.01 9.4 48.9 32 -6.5 20.3
18:10 1017 30.03 847 25.01 9.5 49.1 31 -6.7 20
18:15 1017 30.03 847 25.01 9.3 48.7 32 -6.5 20.2
18:20 1017 30.03 846 24.98 9.2 48.6 31 -7 19.4
18:25 1017 30.03 846 24.98 9.3 48.8 31 -6.9 19.6
18:30 1017 30.03 846 24.98 9.3 48.7 30 -7.4 18.7
18:35 1017 30.03 846 24.98 9.3 48.8 31 -7.1 19.2
18:40 1017 30.03 846 24.98 9.3 48.7 31 -7 19.5
18:45 1017 30.03 846 24.98 9.2 48.6 31 -7.1 19.3
18:50 1017 30.03 846 24.98 9 48.2 32 -6.7 19.9
18:55 1017 30.03 846 24.98 8.8 47.8 32 -6.9 19.5
19:00 1017 30.03 846 24.98 8.8 47.8 32 -6.8 19.7
19:05 1017 30.03 846 24.98 8.7 47.6 34 -6.5 20.3
19:10 1017 30.03 846 24.98 8.4 47.2 35 -6.1 21.1
19:15 1017 30.03 846 24.98 8.3 46.9 35 -6.4 20.4
19:20 1017 30.03 846 24.98 8.4 47.1 33 -6.8 19.8
19:25 1017 30.03 846 24.98 8.3 46.9 38 -5.3 22.5
19:30 1016 30 846 24.98 7.9 46.1 38 -5.5 22
19:35 1016 30 846 24.98 7.9 46.1 34 -7 19.5
19:40 1016 30 846 24.98 8.1 46.7 34 -6.6 20.1
19:45 1016 30 845 24.95 8.3 46.9 34 -6.8 19.8
19:50 1016 30 845 24.95 8.4 47 33 -6.9 19.6
19:55 1016 30 845 24.95 8.2 46.8 35 -6.3 20.7
20:00 1016 30 845 24.95 8 46.5 34 -6.8 19.7
20:05 1016 30 845 24.95 8 46.3 35 -6.6 20.2
20:10 1016 30 845 24.95 7.9 46.3 35 -6.5 20.4
20:15 1016 30 845 24.95 7.8 46.1 36 -6.3 20.6
20:20 1016 30 845 24.95 7.8 46 35 -6.7 20
20:25 1016 30 845 24.95 8 46.5 28 -9.2 15.4
20:30 1016 30 845 24.95 9 48.1 28 -8.5 16.6
20:35 1016 30 845 24.95 9.1 48.3 29 -7.9 17.8
20:40 1016 30 845 24.95 9.2 48.5 27 -9 15.8
20:45 1016 30 845 24.95 9.6 49.2 26 -8.8 16.2
20:50 1016 30 845 24.95 9.8 49.6 27 -8.4 16.9
20:55 1015 29.97 845 24.95 9.7 49.4 27 -8.2 17.3
21:00 1015 29.97 845 24.95 9.4 48.9 29 -7.9 17.8
21:05 1015 29.97 845 24.95 9.3 48.7 31 -7.2 19.1
21:10 1015 29.97 844 24.92 9.1 48.4 31 -7.3 18.8
21:15 1015 29.97 844 24.92 9.1 48.4 30 -7.5 18.5
21:20 1015 29.97 844 24.92 9.1 48.4 30 -7.4 18.6
21:25 1015 29.97 844 24.92 9 48.3 30 -7.8 18
21:30 1015 29.97 844 24.92 9.2 48.6 29 -7.9 17.8
21:35 1015 29.97 844 24.92 9 48.3 31 -7.3 18.9
21:40 1015 29.97 844 24.92 8.8 47.8 31 -7.4 18.8
21:45 1015 29.97 845 24.95 8.7 47.6 31 -7.4 18.7
21:50 1015 29.97 845 24.95 8.8 47.8 30 -7.9 17.8
21:55 1016 30 845 24.95 8.9 48.1 29 -8.1 17.5
22:00 1016 30 845 24.95 9.1 48.3 28 -8.3 17.1
22:05 1016 30 845 24.95 9 48.2 29 -8 17.6
22:10 1016 30 845 24.95 8.8 47.9 28 -8.9 16
22:15 1015 29.97 845 24.95 9.2 48.5 27 -8.7 16.3
22:20 1015 29.97 845 24.95 9.2 48.6 28 -8.4 16.9
22:25 1015 29.97 845 24.95 9.1 48.4 29 -7.8 17.9
22:30 1015 29.97 845 24.95 8.9 47.9 29 -8.1 17.5
22:35 1016 30 845 24.95 8.7 47.7 31 -7.5 18.6
22:40 1016 30 845 24.95 8.4 47.1 33 -6.8 19.7
22:45 1016 30 845 24.95 8.4 47 33 -7 19.4
22:50 1016 30 845 24.95 8.3 47 34 -6.6 20.1
22:55 1016 30 845 24.95 8.2 46.7 34 -6.6 20.1
23:00 1016 30 845 24.95 8.3 47 33 -6.8 19.7
23:05 1016 30 845 24.95 8.4 47.1 34 -6.6 20.1
23:10 1016 30 845 24.95 8.3 46.9 35 -6.2 20.9
23:15 1016 30 845 24.95 8.1 46.6 37 -5.9 21.4
23:20 1016 30 845 24.95 7.9 46.3 38 -5.6 21.9
23:25 1015 29.97 845 24.95 7.8 46 38 -5.8 21.5
23:30 1015 29.97 845 24.95 7.8 46 38 -5.8 21.6
23:35 1015 29.97 845 24.95 7.7 45.9 38 -5.8 21.5
23:40 1015 29.97 844 24.92 7.7 45.9 37 -6.2 20.8
23:45 1015 29.97 844 24.92 7.9 46.1 36 -6.2 20.9
23:50 1015 29.97 844 24.92 8 46.3 36 -6.1 21.1
23:55 1015 29.97 844 24.92 7.9 46.2 37 -5.8 21.6
24:00 1015 29.97 844 24.92 7.6 45.8 39 -5.3 22.4